sensor_id;sensor_type;location;lat;lon;timestamp;P1;durP1;ratioP1;P2;durP2;ratioP2
72358;SDS011;60317;48.880;-0.862;2023-05-15T00:01:25;5.60;;;4.85;;
72358;SDS011;60317;48.880;-0.862;2023-05-15T00:03:53;5.90;;;4.57;;
72358;SDS011;60317;48.880;-0.862;2023-05-15T00:06:19;5.60;;;4.70;;
72358;SDS011;60317;48.880;-0.862;2023-05-15T00:08:46;5.90;;;4.97;;
72358;SDS011;60317;48.880;-0.862;2023-05-15T00:11:12;6.38;;;4.75;;
72358;SDS011;60317;48.880;-0.862;2023-05-15T00:13:39;4.78;;;4.28;;
72358;SDS011;60317;48.880;-0.862;2023-05-15T00:16:05;4.95;;;4.40;;
72358;SDS011;60317;48.880;-0.862;2023-05-15T00:18:33;5.95;;;4.80;;
72358;SDS011;60317;48.880;-0.862;2023-05-15T00:21:01;5.85;;;4.90;;
72358;SDS011;60317;48.880;-0.862;2023-05-15T00:23:28;5.70;;;4.45;;
72358;SDS011;60317;48.880;-0.862;2023-05-15T00:25:54;5.10;;;4.35;;
72358;SDS011;60317;48.880;-0.862;2023-05-15T00:28:21;6.00;;;4.65;;
72358;SDS011;60317;48.880;-0.862;2023-05-15T00:30:47;5.85;;;4.60;;
72358;SDS011;60317;48.880;-0.862;2023-05-15T00:33:14;6.63;;;4.13;;
72358;SDS011;60317;48.880;-0.862;2023-05-15T00:35:40;7.95;;;4.93;;
72358;SDS011;60317;48.880;-0.862;2023-05-15T00:38:08;6.22;;;4.32;;
72358;SDS011;60317;48.880;-0.862;2023-05-15T00:40:35;5.40;;;4.75;;
72358;SDS011;60317;48.880;-0.862;2023-05-15T00:43:03;5.10;;;4.10;;
72358;SDS011;60317;48.880;-0.862;2023-05-15T00:45:30;4.93;;;4.30;;
72358;SDS011;60317;48.880;-0.862;2023-05-15T00:47:57;5.53;;;4.53;;
72358;SDS011;60317;48.880;-0.862;2023-05-15T00:50:25;5.60;;;4.47;;
72358;SDS011;60317;48.880;-0.862;2023-05-15T00:52:53;4.85;;;4.13;;
72358;SDS011;60317;48.880;-0.862;2023-05-15T00:55:22;5.72;;;4.70;;
72358;SDS011;60317;48.880;-0.862;2023-05-15T00:57:50;5.32;;;3.88;;
72358;SDS011;60317;48.880;-0.862;2023-05-15T01:00:18;5.28;;;4.45;;
72358;SDS011;60317;48.880;-0.862;2023-05-15T01:02:45;4.65;;;4.15;;
72358;SDS011;60317;48.880;-0.862;2023-05-15T01:05:12;4.93;;;4.25;;
72358;SDS011;60317;48.880;-0.862;2023-05-15T01:07:39;4.90;;;4.00;;
72358;SDS011;60317;48.880;-0.862;2023-05-15T01:10:13;5.00;;;4.50;;
72358;SDS011;60317;48.880;-0.862;2023-05-15T01:12:43;5.80;;;4.30;;
72358;SDS011;60317;48.880;-0.862;2023-05-15T01:15:11;4.55;;;3.88;;
72358;SDS011;60317;48.880;-0.862;2023-05-15T01:17:38;5.45;;;4.28;;
72358;SDS011;60317;48.880;-0.862;2023-05-15T01:20:04;4.80;;;4.30;;
72358;SDS011;60317;48.880;-0.862;2023-05-15T01:22:40;5.13;;;3.88;;
72358;SDS011;60317;48.880;-0.862;2023-05-15T01:25:27;5.28;;;4.30;;
72358;SDS011;60317;48.880;-0.862;2023-05-15T01:28:10;5.28;;;4.40;;
72358;SDS011;60317;48.880;-0.862;2023-05-15T01:30:39;4.55;;;3.92;;
72358;SDS011;60317;48.880;-0.862;2023-05-15T01:33:10;5.38;;;4.10;;
72358;SDS011;60317;48.880;-0.862;2023-05-15T01:35:43;5.57;;;4.47;;
72358;SDS011;60317;48.880;-0.862;2023-05-15T01:38:14;5.07;;;4.15;;
72358;SDS011;60317;48.880;-0.862;2023-05-15T01:40:47;4.55;;;3.97;;
72358;SDS011;60317;48.880;-0.862;2023-05-15T01:43:22;4.43;;;3.83;;
72358;SDS011;60317;48.880;-0.862;2023-05-15T01:45:53;5.13;;;4.10;;
72358;SDS011;60317;48.880;-0.862;2023-05-15T01:48:21;5.18;;;4.30;;
72358;SDS011;60317;48.880;-0.862;2023-05-15T01:50:49;4.60;;;4.00;;
72358;SDS011;60317;48.880;-0.862;2023-05-15T01:53:17;5.88;;;4.45;;
72358;SDS011;60317;48.880;-0.862;2023-05-15T01:55:45;5.53;;;4.10;;
72358;SDS011;60317;48.880;-0.862;2023-05-15T01:58:13;6.13;;;4.07;;
72358;SDS011;60317;48.880;-0.862;2023-05-15T02:00:42;4.93;;;3.90;;
72358;SDS011;60317;48.880;-0.862;2023-05-15T02:03:10;4.15;;;3.60;;
72358;SDS011;60317;48.880;-0.862;2023-05-15T02:05:36;7.05;;;4.20;;
72358;SDS011;60317;48.880;-0.862;2023-05-15T02:08:04;5.68;;;4.15;;
72358;SDS011;60317;48.880;-0.862;2023-05-15T02:10:31;4.55;;;3.55;;
72358;SDS011;60317;48.880;-0.862;2023-05-15T02:12:58;4.70;;;3.40;;
72358;SDS011;60317;48.880;-0.862;2023-05-15T02:15:26;4.80;;;4.05;;
72358;SDS011;60317;48.880;-0.862;2023-05-15T02:17:55;4.57;;;3.80;;
72358;SDS011;60317;48.880;-0.862;2023-05-15T02:20:21;4.68;;;3.53;;
72358;SDS011;60317;48.880;-0.862;2023-05-15T02:22:48;3.80;;;3.40;;
72358;SDS011;60317;48.880;-0.862;2023-05-15T02:25:14;4.47;;;3.50;;
72358;SDS011;60317;48.880;-0.862;2023-05-15T02:27:42;4.45;;;3.60;;
72358;SDS011;60317;48.880;-0.862;2023-05-15T02:30:19;3.97;;;3.45;;
72358;SDS011;60317;48.880;-0.862;2023-05-15T02:32:58;4.40;;;3.70;;
72358;SDS011;60317;48.880;-0.862;2023-05-15T02:35:31;4.32;;;3.47;;
72358;SDS011;60317;48.880;-0.862;2023-05-15T02:38:05;4.90;;;3.38;;
72358;SDS011;60317;48.880;-0.862;2023-05-15T02:40:35;3.90;;;3.15;;
72358;SDS011;60317;48.880;-0.862;2023-05-15T02:43:03;6.35;;;3.40;;
72358;SDS011;60317;48.880;-0.862;2023-05-15T02:45:30;3.95;;;3.22;;
72358;SDS011;60317;48.880;-0.862;2023-05-15T02:47:59;3.88;;;3.28;;
72358;SDS011;60317;48.880;-0.862;2023-05-15T02:50:26;4.03;;;3.45;;
72358;SDS011;60317;48.880;-0.862;2023-05-15T02:53:00;3.90;;;3.30;;
72358;SDS011;60317;48.880;-0.862;2023-05-15T02:55:27;3.85;;;3.13;;
72358;SDS011;60317;48.880;-0.862;2023-05-15T02:57:53;3.85;;;3.20;;
72358;SDS011;60317;48.880;-0.862;2023-05-15T03:00:20;4.28;;;3.50;;
72358;SDS011;60317;48.880;-0.862;2023-05-15T03:02:47;4.07;;;3.20;;
72358;SDS011;60317;48.880;-0.862;2023-05-15T03:05:14;4.00;;;3.08;;
72358;SDS011;60317;48.880;-0.862;2023-05-15T03:07:41;4.30;;;3.42;;
72358;SDS011;60317;48.880;-0.862;2023-05-15T03:10:07;4.28;;;3.20;;
72358;SDS011;60317;48.880;-0.862;2023-05-15T03:12:34;4.20;;;3.20;;
72358;SDS011;60317;48.880;-0.862;2023-05-15T03:15:02;4.00;;;3.20;;
72358;SDS011;60317;48.880;-0.862;2023-05-15T03:17:28;3.50;;;3.05;;
72358;SDS011;60317;48.880;-0.862;2023-05-15T03:19:55;3.70;;;3.20;;
72358;SDS011;60317;48.880;-0.862;2023-05-15T03:22:23;3.75;;;3.00;;
72358;SDS011;60317;48.880;-0.862;2023-05-15T03:24:50;5.40;;;3.10;;
72358;SDS011;60317;48.880;-0.862;2023-05-15T03:27:17;3.40;;;2.90;;
72358;SDS011;60317;48.880;-0.862;2023-05-15T03:29:43;4.18;;;2.83;;
72358;SDS011;60317;48.880;-0.862;2023-05-15T03:32:10;3.78;;;2.95;;
72358;SDS011;60317;48.880;-0.862;2023-05-15T03:34:36;4.22;;;3.20;;
72358;SDS011;60317;48.880;-0.862;2023-05-15T03:37:06;3.75;;;3.00;;
72358;SDS011;60317;48.880;-0.862;2023-05-15T03:39:33;4.93;;;3.13;;
72358;SDS011;60317;48.880;-0.862;2023-05-15T03:42:00;4.18;;;3.00;;
72358;SDS011;60317;48.880;-0.862;2023-05-15T03:44:26;3.78;;;2.85;;
72358;SDS011;60317;48.880;-0.862;2023-05-15T03:46:53;4.88;;;2.88;;
72358;SDS011;60317;48.880;-0.862;2023-05-15T03:49:20;4.15;;;2.85;;
72358;SDS011;60317;48.880;-0.862;2023-05-15T03:51:46;3.53;;;2.97;;
72358;SDS011;60317;48.880;-0.862;2023-05-15T03:54:13;4.68;;;2.90;;
72358;SDS011;60317;48.880;-0.862;2023-05-15T03:56:40;3.90;;;2.92;;
72358;SDS011;60317;48.880;-0.862;2023-05-15T03:59:07;3.20;;;2.80;;
72358;SDS011;60317;48.880;-0.862;2023-05-15T04:01:33;4.50;;;2.80;;
72358;SDS011;60317;48.880;-0.862;2023-05-15T04:04:12;3.70;;;2.80;;
72358;SDS011;60317;48.880;-0.862;2023-05-15T04:06:39;3.72;;;3.00;;
72358;SDS011;60317;48.880;-0.862;2023-05-15T04:09:05;3.42;;;2.67;;
72358;SDS011;60317;48.880;-0.862;2023-05-15T04:11:32;3.88;;;2.67;;
72358;SDS011;60317;48.880;-0.862;2023-05-15T04:13:59;3.70;;;2.80;;
72358;SDS011;60317;48.880;-0.862;2023-05-15T04:16:26;3.00;;;2.67;;
72358;SDS011;60317;48.880;-0.862;2023-05-15T04:18:52;3.45;;;2.70;;
72358;SDS011;60317;48.880;-0.862;2023-05-15T04:21:19;3.17;;;2.60;;
72358;SDS011;60317;48.880;-0.862;2023-05-15T04:23:45;4.53;;;2.50;;
72358;SDS011;60317;48.880;-0.862;2023-05-15T04:26:12;4.18;;;2.58;;
72358;SDS011;60317;48.880;-0.862;2023-05-15T04:28:38;4.00;;;2.78;;
72358;SDS011;60317;48.880;-0.862;2023-05-15T04:31:15;4.25;;;2.75;;
72358;SDS011;60317;48.880;-0.862;2023-05-15T04:33:42;4.75;;;2.72;;
72358;SDS011;60317;48.880;-0.862;2023-05-15T04:36:09;3.45;;;2.78;;
72358;SDS011;60317;48.880;-0.862;2023-05-15T04:38:35;3.85;;;2.60;;
72358;SDS011;60317;48.880;-0.862;2023-05-15T04:41:02;2.85;;;2.47;;
72358;SDS011;60317;48.880;-0.862;2023-05-15T04:43:28;3.30;;;2.50;;
72358;SDS011;60317;48.880;-0.862;2023-05-15T04:45:55;3.70;;;2.60;;
72358;SDS011;60317;48.880;-0.862;2023-05-15T04:48:23;3.40;;;2.80;;
72358;SDS011;60317;48.880;-0.862;2023-05-15T04:50:49;3.83;;;2.60;;
72358;SDS011;60317;48.880;-0.862;2023-05-15T04:53:16;11.38;;;3.25;;
72358;SDS011;60317;48.880;-0.862;2023-05-15T04:55:42;12.55;;;4.57;;
72358;SDS011;60317;48.880;-0.862;2023-05-15T04:58:08;12.60;;;5.18;;
72358;SDS011;60317;48.880;-0.862;2023-05-15T05:00:35;9.68;;;5.18;;
72358;SDS011;60317;48.880;-0.862;2023-05-15T05:03:01;17.23;;;6.50;;
72358;SDS011;60317;48.880;-0.862;2023-05-15T05:05:29;11.82;;;6.25;;
72358;SDS011;60317;48.880;-0.862;2023-05-15T05:07:56;9.25;;;6.78;;
72358;SDS011;60317;48.880;-0.862;2023-05-15T05:10:22;10.77;;;6.00;;
72358;SDS011;60317;48.880;-0.862;2023-05-15T05:12:49;21.38;;;5.97;;
72358;SDS011;60317;48.880;-0.862;2023-05-15T05:15:15;14.45;;;5.00;;
72358;SDS011;60317;48.880;-0.862;2023-05-15T05:17:42;10.90;;;5.03;;
72358;SDS011;60317;48.880;-0.862;2023-05-15T05:20:09;14.05;;;4.13;;
72358;SDS011;60317;48.880;-0.862;2023-05-15T05:22:40;8.75;;;4.50;;
72358;SDS011;60317;48.880;-0.862;2023-05-15T05:25:06;10.82;;;4.20;;
72358;SDS011;60317;48.880;-0.862;2023-05-15T05:27:33;16.23;;;4.10;;
72358;SDS011;60317;48.880;-0.862;2023-05-15T05:29:59;6.55;;;3.50;;
72358;SDS011;60317;48.880;-0.862;2023-05-15T05:32:26;7.65;;;3.30;;
72358;SDS011;60317;48.880;-0.862;2023-05-15T05:34:52;6.35;;;3.05;;
72358;SDS011;60317;48.880;-0.862;2023-05-15T05:37:19;5.88;;;3.33;;
72358;SDS011;60317;48.880;-0.862;2023-05-15T05:39:47;7.80;;;2.90;;
72358;SDS011;60317;48.880;-0.862;2023-05-15T05:42:13;4.57;;;2.97;;
72358;SDS011;60317;48.880;-0.862;2023-05-15T05:44:40;3.85;;;2.80;;
72358;SDS011;60317;48.880;-0.862;2023-05-15T05:47:06;8.00;;;3.33;;
72358;SDS011;60317;48.880;-0.862;2023-05-15T05:49:33;6.95;;;2.97;;
72358;SDS011;60317;48.880;-0.862;2023-05-15T05:52:04;8.00;;;2.80;;
72358;SDS011;60317;48.880;-0.862;2023-05-15T05:54:32;6.50;;;2.75;;
72358;SDS011;60317;48.880;-0.862;2023-05-15T05:56:59;5.20;;;2.88;;
72358;SDS011;60317;48.880;-0.862;2023-05-15T05:59:26;5.43;;;2.83;;
72358;SDS011;60317;48.880;-0.862;2023-05-15T06:01:52;11.65;;;3.25;;
72358;SDS011;60317;48.880;-0.862;2023-05-15T06:04:19;7.53;;;2.97;;
72358;SDS011;60317;48.880;-0.862;2023-05-15T06:06:45;7.38;;;3.22;;
72358;SDS011;60317;48.880;-0.862;2023-05-15T06:09:12;6.53;;;3.10;;
72358;SDS011;60317;48.880;-0.862;2023-05-15T06:11:39;7.70;;;2.92;;
72358;SDS011;60317;48.880;-0.862;2023-05-15T06:14:06;5.95;;;2.70;;
72358;SDS011;60317;48.880;-0.862;2023-05-15T06:16:33;5.30;;;2.60;;
72358;SDS011;60317;48.880;-0.862;2023-05-15T06:19:00;7.30;;;2.78;;
72358;SDS011;60317;48.880;-0.862;2023-05-15T06:21:27;8.32;;;2.72;;
72358;SDS011;60317;48.880;-0.862;2023-05-15T06:23:53;6.35;;;2.90;;
72358;SDS011;60317;48.880;-0.862;2023-05-15T06:26:19;5.53;;;2.67;;
72358;SDS011;60317;48.880;-0.862;2023-05-15T06:28:46;8.82;;;2.75;;
72358;SDS011;60317;48.880;-0.862;2023-05-15T06:31:14;4.07;;;2.42;;
72358;SDS011;60317;48.880;-0.862;2023-05-15T06:33:40;4.25;;;2.40;;
72358;SDS011;60317;48.880;-0.862;2023-05-15T06:36:07;7.93;;;2.45;;
72358;SDS011;60317;48.880;-0.862;2023-05-15T06:38:33;7.25;;;2.67;;
72358;SDS011;60317;48.880;-0.862;2023-05-15T06:41:00;4.25;;;2.75;;
72358;SDS011;60317;48.880;-0.862;2023-05-15T06:43:27;5.70;;;2.70;;
72358;SDS011;60317;48.880;-0.862;2023-05-15T06:45:53;7.32;;;2.45;;
72358;SDS011;60317;48.880;-0.862;2023-05-15T06:48:21;5.13;;;2.58;;
72358;SDS011;60317;48.880;-0.862;2023-05-15T06:50:47;5.85;;;2.25;;
72358;SDS011;60317;48.880;-0.862;2023-05-15T06:53:14;3.35;;;2.25;;
72358;SDS011;60317;48.880;-0.862;2023-05-15T06:55:41;5.00;;;2.28;;
72358;SDS011;60317;48.880;-0.862;2023-05-15T06:58:07;6.18;;;2.65;;
72358;SDS011;60317;48.880;-0.862;2023-05-15T07:00:34;5.38;;;2.10;;
72358;SDS011;60317;48.880;-0.862;2023-05-15T07:03:00;6.43;;;2.20;;
72358;SDS011;60317;48.880;-0.862;2023-05-15T07:05:28;4.90;;;2.30;;
72358;SDS011;60317;48.880;-0.862;2023-05-15T07:07:54;3.15;;;2.42;;
72358;SDS011;60317;48.880;-0.862;2023-05-15T07:10:21;6.80;;;2.45;;
72358;SDS011;60317;48.880;-0.862;2023-05-15T07:12:48;9.98;;;2.28;;
72358;SDS011;60317;48.880;-0.862;2023-05-15T07:15:15;4.45;;;2.20;;
72358;SDS011;60317;48.880;-0.862;2023-05-15T07:17:41;4.05;;;2.20;;
72358;SDS011;60317;48.880;-0.862;2023-05-15T07:20:08;5.60;;;2.40;;
72358;SDS011;60317;48.880;-0.862;2023-05-15T07:22:37;5.82;;;2.58;;
72358;SDS011;60317;48.880;-0.862;2023-05-15T07:25:21;5.00;;;2.53;;
72358;SDS011;60317;48.880;-0.862;2023-05-15T07:27:48;5.00;;;2.60;;
72358;SDS011;60317;48.880;-0.862;2023-05-15T07:30:14;3.75;;;2.42;;
72358;SDS011;60317;48.880;-0.862;2023-05-15T07:32:41;8.50;;;3.03;;
72358;SDS011;60317;48.880;-0.862;2023-05-15T07:35:08;8.90;;;2.92;;
72358;SDS011;60317;48.880;-0.862;2023-05-15T07:37:36;10.32;;;2.70;;
72358;SDS011;60317;48.880;-0.862;2023-05-15T07:40:03;8.57;;;2.70;;
72358;SDS011;60317;48.880;-0.862;2023-05-15T07:42:30;4.32;;;2.80;;
72358;SDS011;60317;48.880;-0.862;2023-05-15T07:44:57;6.85;;;2.42;;
72358;SDS011;60317;48.880;-0.862;2023-05-15T07:47:24;7.13;;;2.60;;
72358;SDS011;60317;48.880;-0.862;2023-05-15T07:49:50;11.07;;;2.72;;
72358;SDS011;60317;48.880;-0.862;2023-05-15T07:52:17;9.15;;;3.08;;
72358;SDS011;60317;48.880;-0.862;2023-05-15T07:54:45;7.53;;;2.90;;
72358;SDS011;60317;48.880;-0.862;2023-05-15T07:57:12;7.40;;;3.13;;
72358;SDS011;60317;48.880;-0.862;2023-05-15T07:59:38;14.75;;;3.10;;
72358;SDS011;60317;48.880;-0.862;2023-05-15T08:02:05;8.30;;;2.83;;
72358;SDS011;60317;48.880;-0.862;2023-05-15T08:04:32;6.70;;;2.63;;
72358;SDS011;60317;48.880;-0.862;2023-05-15T08:06:59;5.57;;;2.83;;
72358;SDS011;60317;48.880;-0.862;2023-05-15T08:09:25;8.02;;;3.22;;
72358;SDS011;60317;48.880;-0.862;2023-05-15T08:11:54;6.18;;;2.78;;
72358;SDS011;60317;48.880;-0.862;2023-05-15T08:14:21;6.28;;;2.88;;
72358;SDS011;60317;48.880;-0.862;2023-05-15T08:16:48;7.55;;;2.40;;
72358;SDS011;60317;48.880;-0.862;2023-05-15T08:19:15;5.00;;;2.83;;
72358;SDS011;60317;48.880;-0.862;2023-05-15T08:21:42;9.52;;;2.83;;
72358;SDS011;60317;48.880;-0.862;2023-05-15T08:24:08;13.40;;;4.22;;
72358;SDS011;60317;48.880;-0.862;2023-05-15T08:26:35;23.20;;;4.90;;
72358;SDS011;60317;48.880;-0.862;2023-05-15T08:29:03;12.77;;;3.72;;
72358;SDS011;60317;48.880;-0.862;2023-05-15T08:31:29;10.32;;;3.30;;
72358;SDS011;60317;48.880;-0.862;2023-05-15T08:33:56;16.27;;;3.50;;
72358;SDS011;60317;48.880;-0.862;2023-05-15T08:36:22;15.32;;;3.78;;
72358;SDS011;60317;48.880;-0.862;2023-05-15T08:38:49;15.25;;;3.40;;
72358;SDS011;60317;48.880;-0.862;2023-05-15T08:41:17;14.30;;;3.15;;
72358;SDS011;60317;48.880;-0.862;2023-05-15T08:44:07;9.00;;;2.60;;
72358;SDS011;60317;48.880;-0.862;2023-05-15T08:46:35;9.30;;;3.20;;
72358;SDS011;60317;48.880;-0.862;2023-05-15T08:49:02;10.15;;;3.03;;
72358;SDS011;60317;48.880;-0.862;2023-05-15T08:51:36;6.55;;;2.83;;
72358;SDS011;60317;48.880;-0.862;2023-05-15T08:54:04;9.73;;;2.72;;
72358;SDS011;60317;48.880;-0.862;2023-05-15T08:56:31;9.13;;;2.60;;
72358;SDS011;60317;48.880;-0.862;2023-05-15T08:58:58;8.93;;;2.58;;
72358;SDS011;60317;48.880;-0.862;2023-05-15T09:01:26;5.80;;;2.70;;
72358;SDS011;60317;48.880;-0.862;2023-05-15T09:03:53;5.72;;;2.20;;
72358;SDS011;60317;48.880;-0.862;2023-05-15T09:06:20;5.90;;;2.47;;
72358;SDS011;60317;48.880;-0.862;2023-05-15T09:08:47;5.47;;;2.33;;
72358;SDS011;60317;48.880;-0.862;2023-05-15T09:11:15;7.05;;;2.30;;
72358;SDS011;60317;48.880;-0.862;2023-05-15T09:13:42;4.72;;;2.28;;
72358;SDS011;60317;48.880;-0.862;2023-05-15T09:16:08;5.72;;;2.25;;
72358;SDS011;60317;48.880;-0.862;2023-05-15T09:18:36;8.18;;;3.30;;
72358;SDS011;60317;48.880;-0.862;2023-05-15T09:23:49;11.73;;;3.80;;
72358;SDS011;60317;48.880;-0.862;2023-05-15T09:26:15;15.45;;;4.07;;
72358;SDS011;60317;48.880;-0.862;2023-05-15T09:28:42;13.75;;;4.25;;
72358;SDS011;60317;48.880;-0.862;2023-05-15T09:31:08;12.20;;;3.50;;
72358;SDS011;60317;48.880;-0.862;2023-05-15T09:33:38;11.68;;;3.47;;
72358;SDS011;60317;48.880;-0.862;2023-05-15T09:36:06;12.23;;;3.40;;
72358;SDS011;60317;48.880;-0.862;2023-05-15T09:38:34;10.52;;;3.15;;
72358;SDS011;60317;48.880;-0.862;2023-05-15T09:41:05;18.48;;;4.10;;
72358;SDS011;60317;48.880;-0.862;2023-05-15T09:43:33;14.40;;;3.92;;
72358;SDS011;60317;48.880;-0.862;2023-05-15T09:46:01;16.25;;;3.55;;
72358;SDS011;60317;48.880;-0.862;2023-05-15T09:48:28;20.55;;;3.75;;
72358;SDS011;60317;48.880;-0.862;2023-05-15T09:50:57;20.25;;;4.68;;
72358;SDS011;60317;48.880;-0.862;2023-05-15T09:53:24;20.20;;;4.30;;
72358;SDS011;60317;48.880;-0.862;2023-05-15T09:55:51;10.65;;;3.97;;
72358;SDS011;60317;48.880;-0.862;2023-05-15T09:58:18;20.77;;;4.47;;
72358;SDS011;60317;48.880;-0.862;2023-05-15T10:00:45;13.95;;;3.90;;
72358;SDS011;60317;48.880;-0.862;2023-05-15T10:03:15;15.95;;;4.13;;
72358;SDS011;60317;48.880;-0.862;2023-05-15T10:05:43;12.73;;;4.22;;
72358;SDS011;60317;48.880;-0.862;2023-05-15T10:08:11;20.70;;;4.30;;
72358;SDS011;60317;48.880;-0.862;2023-05-15T10:10:38;16.38;;;4.30;;
72358;SDS011;60317;48.880;-0.862;2023-05-15T10:13:04;19.85;;;4.60;;
72358;SDS011;60317;48.880;-0.862;2023-05-15T10:15:33;12.50;;;4.88;;
72358;SDS011;60317;48.880;-0.862;2023-05-15T10:17:59;15.30;;;4.50;;
72358;SDS011;60317;48.880;-0.862;2023-05-15T10:20:27;12.57;;;4.85;;
72358;SDS011;60317;48.880;-0.862;2023-05-15T10:22:55;9.50;;;4.65;;
72358;SDS011;60317;48.880;-0.862;2023-05-15T10:25:25;10.25;;;4.70;;
72358;SDS011;60317;48.880;-0.862;2023-05-15T10:27:58;14.65;;;4.05;;
72358;SDS011;60317;48.880;-0.862;2023-05-15T10:30:25;11.23;;;3.80;;
72358;SDS011;60317;48.880;-0.862;2023-05-15T10:32:53;7.60;;;3.33;;
72358;SDS011;60317;48.880;-0.862;2023-05-15T10:35:21;6.40;;;3.20;;
72358;SDS011;60317;48.880;-0.862;2023-05-15T10:37:48;8.52;;;3.40;;
72358;SDS011;60317;48.880;-0.862;2023-05-15T10:40:15;18.25;;;4.55;;
72358;SDS011;60317;48.880;-0.862;2023-05-15T10:42:45;22.55;;;3.33;;
72358;SDS011;60317;48.880;-0.862;2023-05-15T10:45:12;5.53;;;2.55;;
72358;SDS011;60317;48.880;-0.862;2023-05-15T10:47:39;13.93;;;3.55;;
72358;SDS011;60317;48.880;-0.862;2023-05-15T10:50:07;6.40;;;2.42;;
72358;SDS011;60317;48.880;-0.862;2023-05-15T10:52:35;10.93;;;3.00;;
72358;SDS011;60317;48.880;-0.862;2023-05-15T10:55:04;7.00;;;2.45;;
72358;SDS011;60317;48.880;-0.862;2023-05-15T10:57:32;6.32;;;2.63;;
72358;SDS011;60317;48.880;-0.862;2023-05-15T11:00:00;6.45;;;2.20;;
72358;SDS011;60317;48.880;-0.862;2023-05-15T11:02:27;9.68;;;2.28;;
72358;SDS011;60317;48.880;-0.862;2023-05-15T11:04:55;11.43;;;2.50;;
72358;SDS011;60317;48.880;-0.862;2023-05-15T11:07:22;6.13;;;2.10;;
72358;SDS011;60317;48.880;-0.862;2023-05-15T11:09:50;7.65;;;2.28;;
72358;SDS011;60317;48.880;-0.862;2023-05-15T11:12:17;4.72;;;1.88;;
72358;SDS011;60317;48.880;-0.862;2023-05-15T11:17:37;7.03;;;1.85;;
72358;SDS011;60317;48.880;-0.862;2023-05-15T11:20:03;5.88;;;2.00;;
72358;SDS011;60317;48.880;-0.862;2023-05-15T11:22:31;6.10;;;1.80;;
72358;SDS011;60317;48.880;-0.862;2023-05-15T11:24:59;5.00;;;1.95;;
72358;SDS011;60317;48.880;-0.862;2023-05-15T11:27:28;8.60;;;2.03;;
72358;SDS011;60317;48.880;-0.862;2023-05-15T11:32:43;4.63;;;1.77;;
72358;SDS011;60317;48.880;-0.862;2023-05-15T11:35:17;2.85;;;1.42;;
72358;SDS011;60317;48.880;-0.862;2023-05-15T11:37:45;5.78;;;1.60;;
72358;SDS011;60317;48.880;-0.862;2023-05-15T11:40:12;3.60;;;1.60;;
72358;SDS011;60317;48.880;-0.862;2023-05-15T11:42:40;10.23;;;1.60;;
72358;SDS011;60317;48.880;-0.862;2023-05-15T11:45:07;9.63;;;1.40;;
72358;SDS011;60317;48.880;-0.862;2023-05-15T11:47:34;3.10;;;1.30;;
72358;SDS011;60317;48.880;-0.862;2023-05-15T11:50:04;4.35;;;1.70;;
72358;SDS011;60317;48.880;-0.862;2023-05-15T11:52:31;3.20;;;1.55;;
72358;SDS011;60317;48.880;-0.862;2023-05-15T11:54:57;6.07;;;1.70;;
72358;SDS011;60317;48.880;-0.862;2023-05-15T11:57:25;4.68;;;1.65;;
72358;SDS011;60317;48.880;-0.862;2023-05-15T11:59:52;4.28;;;1.40;;
72358;SDS011;60317;48.880;-0.862;2023-05-15T12:02:19;4.22;;;1.27;;
72358;SDS011;60317;48.880;-0.862;2023-05-15T12:04:47;7.43;;;1.52;;
72358;SDS011;60317;48.880;-0.862;2023-05-15T12:07:15;1.70;;;1.10;;
72358;SDS011;60317;48.880;-0.862;2023-05-15T12:09:42;3.05;;;1.20;;
72358;SDS011;60317;48.880;-0.862;2023-05-15T12:12:11;6.72;;;1.70;;
72358;SDS011;60317;48.880;-0.862;2023-05-15T12:14:38;4.88;;;1.38;;
72358;SDS011;60317;48.880;-0.862;2023-05-15T12:17:05;5.15;;;1.33;;
72358;SDS011;60317;48.880;-0.862;2023-05-15T12:19:32;4.70;;;1.42;;
72358;SDS011;60317;48.880;-0.862;2023-05-15T12:21:59;4.53;;;1.33;;
72358;SDS011;60317;48.880;-0.862;2023-05-15T12:24:27;6.57;;;1.17;;
72358;SDS011;60317;48.880;-0.862;2023-05-15T12:26:53;2.13;;;1.02;;
72358;SDS011;60317;48.880;-0.862;2023-05-15T12:29:22;1.88;;;0.95;;
72358;SDS011;60317;48.880;-0.862;2023-05-15T12:31:51;3.40;;;1.20;;
72358;SDS011;60317;48.880;-0.862;2023-05-15T12:34:17;3.53;;;1.05;;
72358;SDS011;60317;48.880;-0.862;2023-05-15T12:36:44;3.22;;;1.20;;
72358;SDS011;60317;48.880;-0.862;2023-05-15T12:39:10;2.25;;;1.25;;
72358;SDS011;60317;48.880;-0.862;2023-05-15T12:41:38;3.40;;;1.20;;
72358;SDS011;60317;48.880;-0.862;2023-05-15T12:44:05;1.60;;;1.00;;
72358;SDS011;60317;48.880;-0.862;2023-05-15T12:46:31;2.08;;;1.25;;
72358;SDS011;60317;48.880;-0.862;2023-05-15T12:48:58;2.55;;;1.50;;
72358;SDS011;60317;48.880;-0.862;2023-05-15T12:51:25;2.75;;;1.25;;
72358;SDS011;60317;48.880;-0.862;2023-05-15T12:53:52;3.58;;;1.20;;
72358;SDS011;60317;48.880;-0.862;2023-05-15T12:56:19;2.72;;;1.30;;
72358;SDS011;60317;48.880;-0.862;2023-05-15T12:58:47;3.58;;;1.48;;
72358;SDS011;60317;48.880;-0.862;2023-05-15T13:01:14;5.82;;;1.23;;
72358;SDS011;60317;48.880;-0.862;2023-05-15T13:03:42;4.72;;;1.50;;
72358;SDS011;60317;48.880;-0.862;2023-05-15T13:06:09;2.78;;;1.30;;
72358;SDS011;60317;48.880;-0.862;2023-05-15T13:08:38;3.35;;;1.30;;
72358;SDS011;60317;48.880;-0.862;2023-05-15T13:11:05;2.67;;;1.33;;
72358;SDS011;60317;48.880;-0.862;2023-05-15T13:13:40;4.75;;;1.60;;
72358;SDS011;60317;48.880;-0.862;2023-05-15T13:16:17;6.18;;;1.50;;
72358;SDS011;60317;48.880;-0.862;2023-05-15T13:18:45;6.45;;;1.77;;
72358;SDS011;60317;48.880;-0.862;2023-05-15T13:21:11;2.30;;;1.13;;
72358;SDS011;60317;48.880;-0.862;2023-05-15T13:23:38;8.25;;;1.55;;
72358;SDS011;60317;48.880;-0.862;2023-05-15T13:26:04;3.15;;;1.42;;
72358;SDS011;60317;48.880;-0.862;2023-05-15T13:28:32;3.40;;;1.13;;
72358;SDS011;60317;48.880;-0.862;2023-05-15T13:30:58;4.78;;;1.40;;
72358;SDS011;60317;48.880;-0.862;2023-05-15T13:33:27;5.43;;;1.73;;
72358;SDS011;60317;48.880;-0.862;2023-05-15T13:35:53;3.83;;;1.58;;
72358;SDS011;60317;48.880;-0.862;2023-05-15T13:38:20;5.40;;;1.50;;
72358;SDS011;60317;48.880;-0.862;2023-05-15T13:40:46;11.13;;;2.00;;
72358;SDS011;60317;48.880;-0.862;2023-05-15T13:43:13;6.25;;;1.48;;
72358;SDS011;60317;48.880;-0.862;2023-05-15T13:45:39;7.00;;;1.30;;
72358;SDS011;60317;48.880;-0.862;2023-05-15T13:48:06;8.43;;;1.52;;
72358;SDS011;60317;48.880;-0.862;2023-05-15T13:50:34;7.15;;;1.80;;
72358;SDS011;60317;48.880;-0.862;2023-05-15T13:53:00;7.60;;;1.60;;
72358;SDS011;60317;48.880;-0.862;2023-05-15T13:55:27;9.48;;;1.70;;
72358;SDS011;60317;48.880;-0.862;2023-05-15T13:57:54;9.50;;;1.65;;
72358;SDS011;60317;48.880;-0.862;2023-05-15T14:00:20;6.90;;;1.42;;
72358;SDS011;60317;48.880;-0.862;2023-05-15T14:02:47;7.35;;;1.70;;
72358;SDS011;60317;48.880;-0.862;2023-05-15T14:05:14;7.40;;;1.63;;
72358;SDS011;60317;48.880;-0.862;2023-05-15T14:07:42;7.05;;;1.70;;
72358;SDS011;60317;48.880;-0.862;2023-05-15T14:10:09;6.40;;;2.42;;
72358;SDS011;60317;48.880;-0.862;2023-05-15T14:12:36;7.05;;;1.73;;
72358;SDS011;60317;48.880;-0.862;2023-05-15T14:15:03;7.13;;;1.60;;
72358;SDS011;60317;48.880;-0.862;2023-05-15T14:17:30;5.07;;;1.67;;
72358;SDS011;60317;48.880;-0.862;2023-05-15T14:19:57;6.80;;;1.52;;
72358;SDS011;60317;48.880;-0.862;2023-05-15T14:22:23;4.18;;;1.67;;
72358;SDS011;60317;48.880;-0.862;2023-05-15T14:24:51;4.20;;;1.60;;
72358;SDS011;60317;48.880;-0.862;2023-05-15T14:27:18;5.50;;;1.58;;
72358;SDS011;60317;48.880;-0.862;2023-05-15T14:29:45;6.80;;;1.60;;
72358;SDS011;60317;48.880;-0.862;2023-05-15T14:32:11;7.80;;;1.88;;
72358;SDS011;60317;48.880;-0.862;2023-05-15T14:34:38;9.48;;;1.63;;
72358;SDS011;60317;48.880;-0.862;2023-05-15T14:37:05;7.78;;;1.80;;
72358;SDS011;60317;48.880;-0.862;2023-05-15T14:39:32;3.47;;;1.10;;
72358;SDS011;60317;48.880;-0.862;2023-05-15T14:41:59;4.03;;;1.40;;
72358;SDS011;60317;48.880;-0.862;2023-05-15T14:44:26;6.68;;;1.50;;